^^
Saratoga-Weather Station Historical Data
Daily Summary for February 9, 2021 Units:  Metric    English   Both
Daily Weekly Monthly Yearly Custom
  High: Low: Average:
Temperature: 3.6 °C 0.9 °C 2.4 °C
Dew Point: 2.6 °C 0.3 °C 1.5 °C
Humidity: 96% 92% 94%
Wind Speed: 14.3km/h 0km/h 2.7km/h
Wind Gust: 22.5km/h - -
Wind- - West
Pressure: 1007.1 hPa 1002.7 hPa -
Precipitation: 6.1 mm    
Historical Graphs
 
 
Tabular Data for February 9, 2021
Time Temperature Dew Point Pressure Wind Wind Speed Wind Gust Humidity Rainfall Rate (Hourly) solar
00:02 1.1 °C 0.5 °C 1003.7 hPa Calm     96% 0.0 mm 0 W/m2
00:07 1.1 °C 0.5 °C 1003.7 hPa Calm     96% 0.0 mm 0 W/m2
00:12 1.1 °C 0.5 °C 1003.7 hPa Calm     96% 0.0 mm 0 W/m2
00:17 1.2 °C 0.6 °C 1003.7 hPa Calm     96% 0.0 mm 0 W/m2
00:22 1.1 °C 0.5 °C 1003.7 hPa Calm     96% 0.0 mm 0 W/m2
00:27 1.1 °C 0.5 °C 1003.7 hPa Calm     96% 0.0 mm 0 W/m2
00:32 1.1 °C 0.5 °C 1003.7 hPa Calm     96% 0.0 mm 0 W/m2
00:37 1.2 °C 0.6 °C 1003.7 hPa Calm   1.6 km/h 96% 0.0 mm 0 W/m2
00:42 1.2 °C 0.6 °C 1003.7 hPa Calm     96% 0.0 mm 0 W/m2
00:47 1.2 °C 0.6 °C 1003.7 hPa Calm   1.6 km/h 96% 0.0 mm 0 W/m2
00:52 1.2 °C 0.6 °C 1003.7 hPa Calm     96% 0.0 mm 0 W/m2
00:57 1.1 °C 0.5 °C 1003.4 hPa Calm     96% 0.0 mm 0 W/m2
01:02 1.1 °C 0.5 °C 1003.4 hPa SSW 1.4 km/h 3.2 km/h 96% 0.0 mm 0 W/m2
01:07 1 °C 0.4 °C 1003.4 hPa Calm   4.8 km/h 96% 0.0 mm 0 W/m2
01:12 1.2 °C 0.6 °C 1003.4 hPa Calm   3.2 km/h 96% 0.0 mm 0 W/m2
01:17 1.2 °C 0.6 °C 1003.7 hPa Calm     96% 0.0 mm 0 W/m2
01:22 1.2 °C 0.6 °C 1003.7 hPa West 3.2 km/h 6.4 km/h 96% 0.0 mm 0 W/m2
01:27 1.3 °C 0.7 °C 1003.7 hPa Calm   3.2 km/h 96% 0.0 mm 0 W/m2
01:32 1.3 °C 0.7 °C 1003.7 hPa Calm   4.8 km/h 96% 0.0 mm 0 W/m2
01:37 1.3 °C 0.7 °C 1003.7 hPa Calm   1.6 km/h 96% 0.0 mm 0 W/m2
01:42 1.3 °C 0.7 °C 1003.7 hPa Calm     96% 0.0 mm 0 W/m2
01:47 1.2 °C 0.6 °C 1003.7 hPa Calm   1.6 km/h 96% 0.0 mm 0 W/m2
01:52 1.1 °C 0.5 °C 1003.7 hPa Calm     96% 0.0 mm 0 W/m2
01:57 1 °C 0.4 °C 1003.7 hPa Calm   4.8 km/h 96% 0.0 mm 0 W/m2
02:02 0.9 °C 0.3 °C 1003.7 hPa WNW 3.2 km/h 3.2 km/h 96% 0.0 mm 0 W/m2
02:07 1.1 °C 0.5 °C 1003.7 hPa Calm   8 km/h 96% 0.0 mm 0 W/m2
02:12 1.2 °C 0.6 °C 1003.7 hPa WSW 1.4 km/h 3.2 km/h 96% 0.0 mm 0 W/m2
02:17 1.3 °C 0.7 °C 1003.7 hPa West 1.4 km/h 3.2 km/h 96% 0.0 mm 0 W/m2
02:22 1.4 °C 0.8 °C 1004.1 hPa NW 1.4 km/h 1.6 km/h 96% 0.0 mm 0 W/m2
02:27 1.3 °C 0.7 °C 1004.1 hPa Calm   1.6 km/h 96% 0.0 mm 0 W/m2
02:32 1.3 °C 0.7 °C 1004.1 hPa Calm   1.6 km/h 96% 0.0 mm 0 W/m2
02:37 1.2 °C 0.6 °C 1004.1 hPa Calm     96% 0.0 mm 0 W/m2
02:42 1.2 °C 0.6 °C 1004.1 hPa Calm     96% 0.0 mm 0 W/m2
02:47 1.1 °C 0.5 °C 1004.4 hPa NE 1.4 km/h 1.6 km/h 96% 0.0 mm 0 W/m2
02:52 1.1 °C 0.5 °C 1004.4 hPa WNW 1.4 km/h 4.8 km/h 96% 0.0 mm 0 W/m2
02:57 1.2 °C 0.6 °C 1004.4 hPa Calm     96% 0.0 mm 0 W/m2
03:02 1.3 °C 0.7 °C 1004.4 hPa WNW 3.2 km/h 8 km/h 96% 0.0 mm 0 W/m2
03:07 1.5 °C 0.9 °C 1004.4 hPa Calm   3.2 km/h 96% 0.0 mm 0 W/m2
03:12 1.6 °C 1 °C 1004.4 hPa Calm   6.4 km/h 96% 0.0 mm 0 W/m2
03:17 1.7 °C 1.1 °C 1004.4 hPa SW 1.4 km/h 6.4 km/h 96% 0.0 mm 0 W/m2
03:22 1.7 °C 1.1 °C 1004.4 hPa NW 3.2 km/h 4.8 km/h 96% 0.0 mm 0 W/m2
03:27 1.8 °C 1.2 °C 1004.4 hPa WSW 1.4 km/h 1.6 km/h 96% 0.0 mm 0 W/m2
03:32 1.6 °C 1 °C 1004.4 hPa WSW 4.8 km/h 4.8 km/h 96% 0.0 mm 0 W/m2
03:37 1.4 °C 0.7 °C 1004.4 hPa Calm   1.6 km/h 95% 0.0 mm 0 W/m2
03:42 1.3 °C 0.7 °C 1004.4 hPa WNW 1.4 km/h 6.4 km/h 96% 0.0 mm 0 W/m2
03:47 1.4 °C 0.8 °C 1004.4 hPa Calm   4.8 km/h 96% 0.0 mm 0 W/m2
03:52 1.4 °C 0.8 °C 1004.4 hPa Calm   3.2 km/h 96% 0.0 mm 0 W/m2
03:57 1.4 °C 0.8 °C 1004.4 hPa West 1.4 km/h 6.4 km/h 96% 0.0 mm 0 W/m2
04:02 1.6 °C 1 °C 1004.4 hPa SW 1.4 km/h 3.2 km/h 96% 0.0 mm 0 W/m2
04:07 1.4 °C 0.8 °C 1004.4 hPa Calm   6.4 km/h 96% 0.0 mm 0 W/m2
04:12 1.3 °C 0.7 °C 1004.4 hPa NNW 3.2 km/h 4.8 km/h 96% 0.0 mm 0 W/m2
04:17 1.5 °C 0.9 °C 1004.7 hPa WSW 7.9 km/h 14.5 km/h 96% 0.0 mm 0 W/m2
04:22 1.7 °C 1.1 °C 1004.7 hPa WNW 9.7 km/h 22.5 km/h 96% 0.0 mm 0 W/m2
04:27 1.8 °C 1.2 °C 1004.4 hPa West 4.7 km/h 12.9 km/h 96% 0.0 mm 0 W/m2
04:32 1.8 °C 1.2 °C 1004.4 hPa West 4.7 km/h 22.5 km/h 96% 0.0 mm 0 W/m2
04:37 1.8 °C 1.2 °C 1004.7 hPa WNW 7.9 km/h 11.3 km/h 96% 0.0 mm 0 W/m2
04:42 1.8 °C 1.2 °C 1004.7 hPa West 6.4 km/h 8 km/h 96% 0.0 mm 0 W/m2
04:47 1.9 °C 1.3 °C 1004.7 hPa WSW 11.1 km/h 16.1 km/h 96% 0.0 mm 0 W/m2
04:52 1.8 °C 1.2 °C 1004.7 hPa West 4.7 km/h 11.3 km/h 96% 0.0 mm 0 W/m2
04:57 1.8 °C 1.1 °C 1004.7 hPa WNW 3.2 km/h 14.5 km/h 95% 0.0 mm 0 W/m2
05:02 1.8 °C 1.1 °C 1004.7 hPa West 9.7 km/h 17.7 km/h 95% 0.0 mm 0 W/m2
05:07 1.8 °C 1.1 °C 1004.7 hPa WSW 4.7 km/h 14.5 km/h 95% 0.0 mm 0 W/m2
05:12 1.8 °C 1.1 °C 1004.7 hPa WNW 3.2 km/h 14.5 km/h 95% 0.0 mm 0 W/m2
05:17 1.8 °C 1.1 °C 1004.7 hPa West 6.4 km/h 17.7 km/h 95% 0.0 mm 0 W/m2
05:22 1.8 °C 1.1 °C 1004.7 hPa WNW 6.4 km/h 16.1 km/h 95% 0.0 mm 0 W/m2
05:27 1.8 °C 1.1 °C 1004.7 hPa WNW 6.4 km/h 17.7 km/h 95% 0.0 mm 0 W/m2
05:32 1.8 °C 1.1 °C 1004.4 hPa NW 6.4 km/h 12.9 km/h 95% 0.0 mm 0 W/m2
05:37 1.8 °C 1.1 °C 1004.7 hPa WNW 3.2 km/h 14.5 km/h 95% 0.0 mm 0 W/m2
05:42 1.8 °C 1.1 °C 1004.7 hPa WNW 4.7 km/h 4.8 km/h 95% 0.0 mm 0 W/m2
05:47 1.8 °C 1.1 °C 1004.7 hPa West 1.4 km/h 12.9 km/h 95% 0.0 mm 0 W/m2
05:52 1.8 °C 1.1 °C 1004.7 hPa NW 3.2 km/h 6.4 km/h 95% 0.0 mm 0 W/m2
05:57 1.8 °C 1.1 °C 1004.7 hPa WNW 4.7 km/h 12.9 km/h 95% 0.0 mm 0 W/m2
06:02 1.8 °C 1.1 °C 1004.7 hPa NW 3.2 km/h 8 km/h 95% 0.0 mm 0 W/m2
06:07 1.8 °C 1.1 °C 1005.1 hPa West 13 km/h 12.9 km/h 95% 0.0 mm 0 W/m2
06:12 1.8 °C 1.1 °C 1005.1 hPa WNW 4.7 km/h 14.5 km/h 95% 0.0 mm 0 W/m2
06:17 1.8 °C 1.1 °C 1005.1 hPa WNW 11.1 km/h 14.5 km/h 95% 0.0 mm 0 W/m2
06:22 1.9 °C 1.2 °C 1005.1 hPa NW 7.9 km/h 11.3 km/h 95% 0.0 mm 0 W/m2
06:27 1.9 °C 1.2 °C 1005.4 hPa NW 14.3 km/h 16.1 km/h 95% 0.0 mm 0 W/m2
06:32 1.9 °C 1.2 °C 1005.4 hPa West 3.2 km/h 16.1 km/h 95% 0.0 mm 0 W/m2
06:37 2 °C 1.3 °C 1005.8 hPa NNW 4.7 km/h 11.3 km/h 95% 0.0 mm 0 W/m2
06:42 2.1 °C 1.2 °C 1005.8 hPa NW 4.7 km/h 16.1 km/h 94% 0.0 mm 0 W/m2
06:47 2.1 °C 1.2 °C 1005.8 hPa West 1.4 km/h 6.4 km/h 94% 0.0 mm 0 W/m2
06:52 2.1 °C 1.2 °C 1005.8 hPa West 3.2 km/h 6.4 km/h 94% 0.0 mm 0 W/m2
06:57 2 °C 1.1 °C 1006.1 hPa West 4.7 km/h 12.9 km/h 94% 0.0 mm 0 W/m2
07:02 2 °C 1.1 °C 1006.1 hPa West 6.4 km/h 17.7 km/h 94% 0.0 mm 0 W/m2
07:07 1.9 °C 1 °C 1006.1 hPa WSW 6.4 km/h 20.9 km/h 94% 0.0 mm 0 W/m2
07:12 1.9 °C 1 °C 1006.1 hPa West 4.7 km/h 6.4 km/h 94% 0.0 mm 0 W/m2
07:17 1.9 °C 1 °C 1006.1 hPa WNW 3.2 km/h 20.9 km/h 94% 0.0 mm 0 W/m2
07:22 1.9 °C 1 °C 1006.1 hPa WNW 3.2 km/h 8 km/h 94% 0.0 mm 0 W/m2
07:27 1.9 °C 1 °C 1006.1 hPa WNW 1.4 km/h 4.8 km/h 94% 0.0 mm 0 W/m2
07:32 1.9 °C 1 °C 1006.1 hPa NW 4.7 km/h 4.8 km/h 94% 0.0 mm 0 W/m2
07:38 1.9 °C 1.2 °C 1006.1 hPa NNW 3.2 km/h 4.8 km/h 95% 0.0 mm 0 W/m2
07:43 1.9 °C 1.2 °C 1006.1 hPa Calm   1.6 km/h 95% 0.0 mm 0 W/m2
07:48 1.9 °C 1.2 °C 1006.1 hPa NW 1.4 km/h 4.8 km/h 95% 0.0 mm 0 W/m2
07:53 1.9 °C 1.2 °C 1006.1 hPa Calm   4.8 km/h 95% 0.0 mm 0 W/m2
07:58 1.9 °C 1.2 °C 1006.4 hPa Calm   3.2 km/h 95% 0.0 mm 0 W/m2
08:03 1.9 °C 1.2 °C 1006.4 hPa NNW 1.4 km/h 3.2 km/h 95% 0.0 mm 0 W/m2
08:08 2 °C 1.1 °C 1006.4 hPa WNW 1.4 km/h 4.8 km/h 94% 0.0 mm 0 W/m2
08:13 2 °C 1.1 °C 1006.4 hPa NW 1.4 km/h 4.8 km/h 94% 0.0 mm 0 W/m2
08:18 2 °C 1.1 °C 1006.4 hPa West 11.3 km/h 11.3 km/h 94% 0.0 mm 0 W/m2
08:23 2 °C 1.1 °C 1006.4 hPa NW 1.4 km/h 6.4 km/h 94% 0.0 mm 0 W/m2
08:28 2 °C 1.1 °C 1006.4 hPa NW 1.4 km/h 6.4 km/h 94% 0.0 mm 0 W/m2
08:33 2 °C 1.1 °C 1006.4 hPa WNW 4.7 km/h 6.4 km/h 94% 0.0 mm 0 W/m2
08:38 2.1 °C 1.2 °C 1006.4 hPa NW 6.4 km/h 9.7 km/h 94% 0.0 mm 5 W/m2
08:43 2.1 °C 1.2 °C 1006.4 hPa NW 4.7 km/h 4.8 km/h 94% 0.0 mm 5 W/m2
08:48 2.1 °C 1.2 °C 1006.4 hPa Calm   4.8 km/h 94% 0.0 mm 9 W/m2
08:53 2.1 °C 1.2 °C 1006.4 hPa WNW 4.7 km/h 11.3 km/h 94% 0.0 mm 14 W/m2
08:58 2.1 °C 1.2 °C 1006.4 hPa NNW 3.2 km/h 6.4 km/h 94% 0.0 mm 14 W/m2
09:03 2.1 °C 1.2 °C 1006.4 hPa WNW 4.7 km/h 4.8 km/h 94% 0.0 mm 19 W/m2
09:08 2.1 °C 1.2 °C 1006.4 hPa South 4.7 km/h 14.5 km/h 94% 0.0 mm 19 W/m2
09:13 2.1 °C 1.2 °C 1006.4 hPa NW 1.4 km/h 4.8 km/h 94% 0.0 mm 30 W/m2
09:18 2.1 °C 1.2 °C 1006.8 hPa West 3.2 km/h 8 km/h 94% 0.0 mm 21 W/m2
09:23 2.1 °C 1.2 °C 1006.8 hPa NNE 4.7 km/h 8 km/h 94% 0.0 mm 9 W/m2
09:28 2.1 °C 1.2 °C 1006.8 hPa NW 1.4 km/h 4.8 km/h 94% 0.0 mm 16 W/m2
09:33 2.1 °C 1.2 °C 1006.8 hPa WNW 3.2 km/h 3.2 km/h 94% 0.0 mm 23 W/m2
09:38 2.1 °C 1.2 °C 1006.8 hPa WNW 1.4 km/h 6.4 km/h 94% 0.0 mm 21 W/m2
09:43 2.2 °C 1.3 °C 1006.8 hPa WSW 1.4 km/h 3.2 km/h 94% 0.0 mm 40 W/m2
09:48 2.2 °C 1.3 °C 1006.8 hPa WSW 3.2 km/h 3.2 km/h 94% 0.0 mm 37 W/m2
09:53 2.2 °C 1.3 °C 1006.8 hPa NW 6.4 km/h 9.7 km/h 94% 0.0 mm 35 W/m2
09:58 2.3 °C 1.4 °C 1006.8 hPa SW 1.4 km/h 9.7 km/h 94% 0.0 mm 49 W/m2
10:03 2.3 °C 1.4 °C 1007.1 hPa West 11.1 km/h 16.1 km/h 94% 0.0 mm 47 W/m2
10:08 2.4 °C 1.5 °C 1006.8 hPa West 6.4 km/h 11.3 km/h 94% 0.0 mm 47 W/m2
10:13 2.4 °C 1.4 °C 1007.1 hPa NW 4.7 km/h 16.1 km/h 93% 0.0 mm 49 W/m2
10:18 2.4 °C 1.4 °C 1007.1 hPa NNW 1.4 km/h 4.8 km/h 93% 0.0 mm 58 W/m2
10:23 2.5 °C 1.5 °C 1007.1 hPa NE 7.9 km/h 9.7 km/h 93% 0.0 mm 65 W/m2
10:28 2.6 °C 1.6 °C 1006.8 hPa NNW 1.4 km/h 8 km/h 93% 0.0 mm 53 W/m2
10:33 2.6 °C 1.6 °C 1006.8 hPa NW 4.7 km/h 11.3 km/h 93% 0.0 mm 58 W/m2
10:38 2.6 °C 1.6 °C 1006.8 hPa Calm   6.4 km/h 93% 0.0 mm 120 W/m2
10:43 2.7 °C 1.7 °C 1006.8 hPa Calm   4.8 km/h 93% 0.0 mm 90 W/m2
10:48 2.8 °C 1.8 °C 1006.8 hPa NNW 3.2 km/h 6.4 km/h 93% 0.0 mm 83 W/m2
10:53 2.8 °C 1.8 °C 1006.8 hPa WSW 1.4 km/h 4.8 km/h 93% 0.0 mm 72 W/m2
10:58 2.9 °C 1.9 °C 1007.1 hPa Calm   1.6 km/h 93% 0.0 mm 76 W/m2
11:03 2.9 °C 1.7 °C 1007.1 hPa West 3.2 km/h 6.4 km/h 92% 0.0 mm 62 W/m2
11:08 3 °C 1.8 °C 1007.1 hPa West 13 km/h 12.9 km/h 92% 0.0 mm 69 W/m2
11:13 2.9 °C 1.7 °C 1007.1 hPa WNW 1.4 km/h 11.3 km/h 92% 0.0 mm 35 W/m2
11:18 2.9 °C 1.7 °C 1007.1 hPa West 1.4 km/h 4.8 km/h 92% 0.0 mm 35 W/m2
11:23 2.9 °C 1.7 °C 1007.1 hPa East 3.2 km/h 11.3 km/h 92% 0.0 mm 77 W/m2
11:28 3 °C 1.8 °C 1007.1 hPa NW 6.4 km/h 12.9 km/h 92% 0.0 mm 120 W/m2
11:33 3.1 °C 1.9 °C 1006.8 hPa NW 3.2 km/h 3.2 km/h 92% 0.0 mm 81 W/m2
11:38 3.1 °C 1.9 °C 1006.8 hPa NW 3.2 km/h 8 km/h 92% 0.0 mm 40 W/m2
11:43 3.1 °C 1.9 °C 1006.8 hPa WNW 1.4 km/h 4.8 km/h 92% 0.0 mm 63 W/m2
11:48 3.1 °C 1.9 °C 1006.4 hPa ESE 4.7 km/h 8 km/h 92% 0.2 mm 77 W/m2
11:53 3.2 °C 2 °C 1006.4 hPa North 1.4 km/h 3.2 km/h 92% 0.2 mm 72 W/m2
11:58 3.2 °C 2 °C 1006.4 hPa ENE 4.7 km/h 8 km/h 92% 0.2 mm 56 W/m2
12:03 3.1 °C 1.9 °C 1006.4 hPa Calm   3.2 km/h 92% 0.2 mm 54 W/m2
12:08 3.2 °C 2 °C 1006.4 hPa Calm   8 km/h 92% 0.2 mm 120 W/m2
12:13 3.2 °C 2 °C 1006.4 hPa NE 1.4 km/h 6.4 km/h 92% 0.2 mm 123 W/m2
12:18 3.2 °C 2 °C 1006.4 hPa ENE 1.4 km/h 8 km/h 92% 0.2 mm 90 W/m2
12:23 3.2 °C 2 °C 1006.4 hPa ENE 6.4 km/h 6.4 km/h 92% 0.2 mm 77 W/m2
12:28 3.2 °C 2 °C 1006.4 hPa South 1.4 km/h 8 km/h 92% 0.5 mm 67 W/m2
12:33 3.2 °C 2 °C 1006.4 hPa NW 4.7 km/h 6.4 km/h 92% 0.5 mm 58 W/m2
12:38 3.1 °C 1.9 °C 1006.4 hPa Calm   1.6 km/h 92% 0.5 mm 56 W/m2
12:43 2.9 °C 1.7 °C 1006.4 hPa NNW 1.4 km/h 6.4 km/h 92% 1.0 mm 49 W/m2
12:48 2.8 °C 1.6 °C 1006.4 hPa SSW 1.4 km/h 4.8 km/h 92% 0.8 mm 42 W/m2
12:53 2.8 °C 1.8 °C 1006.4 hPa NW 1.4 km/h 1.6 km/h 93% 1.0 mm 44 W/m2
12:58 2.7 °C 1.7 °C 1006.4 hPa NW 3.2 km/h 4.8 km/h 93% 1.3 mm 60 W/m2
13:03 2.6 °C 1.6 °C 1006.1 hPa WNW 1.4 km/h 3.2 km/h 93% 1.3 mm 60 W/m2
13:08 2.4 °C 1.4 °C 1006.4 hPa WNW 3.2 km/h 6.4 km/h 93% 1.3 mm 79 W/m2
13:13 2.4 °C 1.4 °C 1006.4 hPa WNW 1.4 km/h 4.8 km/h 93% 1.5 mm 84 W/m2
13:18 2.4 °C 1.4 °C 1006.1 hPa Calm     93% 1.5 mm 63 W/m2
13:23 2.4 °C 1.4 °C 1006.1 hPa West 3.2 km/h 6.4 km/h 93% 1.5 mm 70 W/m2
13:28 2.4 °C 1.5 °C 1006.1 hPa Calm   3.2 km/h 94% 1.5 mm 58 W/m2
13:33 2.4 °C 1.5 °C 1006.1 hPa NW 1.4 km/h 3.2 km/h 94% 1.5 mm 56 W/m2
13:38 2.3 °C 1.4 °C 1006.1 hPa WNW 3.2 km/h 4.8 km/h 94% 1.5 mm 58 W/m2
13:43 2.3 °C 1.4 °C 1006.1 hPa West 1.4 km/h 4.8 km/h 94% 1.0 mm 53 W/m2
13:48 2.3 °C 1.4 °C 1006.1 hPa WNW 3.2 km/h 4.8 km/h 94% 1.3 mm 76 W/m2
13:53 2.3 °C 1.4 °C 1006.1 hPa Calm   1.6 km/h 94% 1.0 mm 100 W/m2
13:58 2.3 °C 1.4 °C 1006.1 hPa WSW 3.2 km/h 8 km/h 94% 1.0 mm 104 W/m2
14:03 2.3 °C 1.4 °C 1006.1 hPa Calm   8 km/h 94% 1.0 mm 88 W/m2
14:08 2.3 °C 1.4 °C 1006.1 hPa WNW 6.4 km/h 8 km/h 94% 1.0 mm 65 W/m2
14:13 2.3 °C 1.4 °C 1006.1 hPa WNW 1.4 km/h 3.2 km/h 94% 0.8 mm 53 W/m2
14:18 2.3 °C 1.4 °C 1006.1 hPa WNW 1.4 km/h 4.8 km/h 94% 0.8 mm 30 W/m2
14:23 2.3 °C 1.4 °C 1005.8 hPa NW 1.4 km/h 3.2 km/h 94% 1.0 mm 26 W/m2
14:28 2.2 °C 1.3 °C 1006.1 hPa Calm   4.8 km/h 94% 1.0 mm 33 W/m2
14:33 2.1 °C 1.2 °C 1006.1 hPa Calm   9.7 km/h 94% 1.0 mm 42 W/m2
14:38 2.1 °C 1.2 °C 1005.8 hPa Calm   4.8 km/h 94% 1.0 mm 47 W/m2
14:43 2.1 °C 1.2 °C 1005.8 hPa NNE 1.4 km/h 6.4 km/h 94% 1.0 mm 47 W/m2
14:48 2.1 °C 1.2 °C 1005.8 hPa WNW 4.7 km/h 6.4 km/h 94% 1.0 mm 54 W/m2
14:53 2.1 °C 1.2 °C 1005.8 hPa West 11.1 km/h 11.3 km/h 94% 1.0 mm 60 W/m2
14:58 2.1 °C 1.2 °C 1005.8 hPa WNW 1.4 km/h 4.8 km/h 94% 0.8 mm 47 W/m2
15:03 2.2 °C 1.3 °C 1005.8 hPa NW 1.4 km/h 4.8 km/h 94% 0.8 mm 40 W/m2
15:09 2.2 °C 1.5 °C 1005.8 hPa Calm   4.8 km/h 95% 1.0 mm 72 W/m2
15:14 2.3 °C 1.6 °C 1005.8 hPa Calm   4.8 km/h 95% 1.0 mm 53 W/m2
15:19 2.4 °C 1.5 °C 1005.8 hPa NNW 1.4 km/h 3.2 km/h 94% 1.0 mm 47 W/m2
15:24 2.4 °C 1.7 °C 1006.1 hPa NW 1.4 km/h 4.8 km/h 95% 0.8 mm 62 W/m2
15:29 2.5 °C 1.8 °C 1006.1 hPa Calm   3.2 km/h 95% 0.8 mm 30 W/m2
15:34 2.6 °C 1.9 °C 1006.1 hPa Calm   1.6 km/h 95% 0.8 mm 26 W/m2
15:39 2.7 °C 2 °C 1006.1 hPa NW 3.2 km/h 3.2 km/h 95% 0.5 mm 25 W/m2
15:44 2.7 °C 2 °C 1006.1 hPa Calm   6.4 km/h 95% 0.5 mm 18 W/m2
15:49 2.7 °C 2 °C 1006.1 hPa West 4.7 km/h 4.8 km/h 95% 0.5 mm 25 W/m2
16:25 2.9 °C 2 °C 1006.4 hPa West 3.2 km/h 8 km/h 94% 0.5 mm 0 W/m2
16:30 2.8 °C 1.9 °C 1006.4 hPa Calm   4.8 km/h 94% 1.0 mm 0 W/m2
16:35 2.7 °C 1.8 °C 1006.4 hPa NNE 4.7 km/h 4.8 km/h 94% 1.5 mm 0 W/m2
16:40 2.6 °C 1.7 °C 1006.4 hPa NW 3.2 km/h 3.2 km/h 94% 2.0 mm 0 W/m2
16:45 2.5 °C 1.6 °C 1006.1 hPa NE 3.2 km/h 6.4 km/h 94% 2.3 mm 0 W/m2
16:50 2.5 °C 1.6 °C 1006.4 hPa NNW 1.4 km/h 3.2 km/h 94% 2.3 mm 0 W/m2
16:55 2.6 °C 1.7 °C 1006.1 hPa Calm   3.2 km/h 94% 2.3 mm 0 W/m2
17:00 2.6 °C 1.9 °C 1006.1 hPa NW 1.4 km/h 3.2 km/h 95% 2.3 mm 0 W/m2
17:05 2.7 °C 2 °C 1006.1 hPa WSW 3.2 km/h 8 km/h 95% 2.3 mm 0 W/m2
17:10 2.7 °C 1.8 °C 1006.1 hPa NW 1.4 km/h 4.8 km/h 94% 2.3 mm 0 W/m2
17:15 2.7 °C 1.8 °C 1006.1 hPa WNW 4.7 km/h 11.3 km/h 94% 2.3 mm 0 W/m2
17:20 2.8 °C 1.9 °C 1006.1 hPa Calm   1.6 km/h 94% 2.3 mm 0 W/m2
17:25 2.8 °C 2.1 °C 1006.4 hPa Calm   11.3 km/h 95% 2.0 mm 0 W/m2
17:30 2.8 °C 2.1 °C 1006.1 hPa Calm   3.2 km/h 95% 1.5 mm 0 W/m2
17:35 2.8 °C 2.1 °C 1006.1 hPa WSW 3.2 km/h 8 km/h 95% 0.8 mm 0 W/m2
17:40 2.8 °C 2.1 °C 1006.1 hPa Calm   1.6 km/h 95% 0.5 mm 0 W/m2
17:45 2.9 °C 2.2 °C 1006.1 hPa NW 1.4 km/h 11.3 km/h 95% 0.5 mm 0 W/m2
17:50 2.9 °C 2 °C 1006.1 hPa WNW 1.4 km/h 6.4 km/h 94% 0.5 mm 0 W/m2
17:56 3 °C 2.1 °C 1006.1 hPa NW 4.7 km/h 9.7 km/h 94% 0.5 mm 0 W/m2
18:01 3.1 °C 2.2 °C 1006.1 hPa Calm   3.2 km/h 94% 0.5 mm 0 W/m2
18:06 3.2 °C 2.5 °C 1005.8 hPa Calm   12.9 km/h 95% 0.5 mm 0 W/m2
18:11 3.2 °C 2.3 °C 1005.8 hPa West 3.2 km/h 14.5 km/h 94% 0.5 mm 0 W/m2
18:16 3.2 °C 2.3 °C 1005.8 hPa NE 4.7 km/h 4.8 km/h 94% 0.5 mm 0 W/m2
18:26 3.3 °C 2.4 °C 1005.8 hPa Calm   4.8 km/h 94% 0.5 mm 0 W/m2
18:31 3.3 °C 2.4 °C 1005.8 hPa SE 1.4 km/h 6.4 km/h 94% 0.2 mm 0 W/m2
18:36 3.3 °C 2.4 °C 1005.8 hPa WNW 3.2 km/h 11.3 km/h 94% 0.2 mm 0 W/m2
18:41 3.3 °C 2.4 °C 1005.8 hPa WSW 3.2 km/h 6.4 km/h 94% 0.2 mm 0 W/m2
18:46 3.3 °C 2.4 °C 1005.8 hPa Calm     94% 0.0 mm 0 W/m2
18:51 3.2 °C 2.3 °C 1005.8 hPa WNW 4.7 km/h 6.4 km/h 94% 0.0 mm 0 W/m2
18:56 3.3 °C 2.4 °C 1005.8 hPa West 3.2 km/h 6.4 km/h 94% 0.0 mm 0 W/m2
19:01 3.3 °C 2.4 °C 1005.8 hPa NW 3.2 km/h 3.2 km/h 94% 0.0 mm 0 W/m2
19:06 3.3 °C 2.4 °C 1005.8 hPa West 4.7 km/h 8 km/h 94% 0.0 mm 0 W/m2
19:11 3.3 °C 2.4 °C 1005.8 hPa NW 1.4 km/h 4.8 km/h 94% 0.0 mm 0 W/m2
19:16 3.3 °C 2.4 °C 1005.8 hPa Calm   3.2 km/h 94% 0.0 mm 0 W/m2
19:21 3.3 °C 2.4 °C 1005.8 hPa West 3.2 km/h 6.4 km/h 94% 0.0 mm 0 W/m2
19:26 3.3 °C 2.4 °C 1005.8 hPa NW 3.2 km/h 3.2 km/h 94% 0.0 mm 0 W/m2
19:31 3.4 °C 2.5 °C 1005.8 hPa WNW 6.4 km/h 6.4 km/h 94% 0.0 mm 0 W/m2
19:36 3.4 °C 2.5 °C 1005.8 hPa NNW 4.7 km/h 8 km/h 94% 0.0 mm 0 W/m2
19:41 3.4 °C 2.5 °C 1005.8 hPa West 3.2 km/h 4.8 km/h 94% 0.0 mm 0 W/m2
19:46 3.4 °C 2.5 °C 1005.8 hPa NNW 1.4 km/h 8 km/h 94% 0.0 mm 0 W/m2
19:51 3.4 °C 2.5 °C 1005.8 hPa WNW 4.7 km/h 8 km/h 94% 0.0 mm 0 W/m2
19:56 3.5 °C 2.5 °C 1005.8 hPa WNW 4.7 km/h 6.4 km/h 93% 0.0 mm 0 W/m2
20:01 3.5 °C 2.5 °C 1005.8 hPa NW 3.2 km/h 11.3 km/h 93% 0.0 mm 0 W/m2
20:06 3.6 °C 2.6 °C 1005.8 hPa Calm   11.3 km/h 93% 0.0 mm 0 W/m2
20:11 3.6 °C 2.6 °C 1005.8 hPa WNW 4.7 km/h 11.3 km/h 93% 0.0 mm 0 W/m2
20:16 3.6 °C 2.6 °C 1005.8 hPa WNW 4.7 km/h 6.4 km/h 93% 0.0 mm 0 W/m2
20:21 3.6 °C 2.6 °C 1005.8 hPa WNW 3.2 km/h 8 km/h 93% 0.0 mm 0 W/m2
20:38 3.5 °C 2.5 °C 1005.8 hPa NNW 1.4 km/h 6.4 km/h 93% 0.0 mm 0 W/m2
20:44 3.5 °C 2.5 °C 1005.8 hPa NW 1.4 km/h 9.7 km/h 93% 0.0 mm 0 W/m2
20:49 3.5 °C 2.5 °C 1005.8 hPa WNW 6.4 km/h 6.4 km/h 93% 0.0 mm 0 W/m2
20:54 3.5 °C 2.5 °C 1005.8 hPa NNW 7.9 km/h 8 km/h 93% 0.0 mm 0 W/m2
20:59 3.6 °C 2.6 °C 1005.8 hPa NW 3.2 km/h 12.9 km/h 93% 0.0 mm 0 W/m2
21:04 3.6 °C 2.6 °C 1005.4 hPa WSW 4.7 km/h 8 km/h 93% 0.0 mm 0 W/m2
21:09 3.6 °C 2.6 °C 1005.4 hPa WNW 1.4 km/h 9.7 km/h 93% 0.0 mm 0 W/m2
21:14 3.5 °C 2.3 °C 1005.4 hPa West 4.7 km/h 9.7 km/h 92% 0.0 mm 0 W/m2
21:19 3.6 °C 2.4 °C 1005.4 hPa West 3.2 km/h 8 km/h 92% 0.0 mm 0 W/m2
21:24 3.5 °C 2.3 °C 1005.4 hPa West 4.7 km/h 4.8 km/h 92% 0.0 mm 0 W/m2
21:29 3.5 °C 2.3 °C 1005.4 hPa NW 1.4 km/h 9.7 km/h 92% 0.0 mm 0 W/m2
21:34 3.5 °C 2.3 °C 1005.4 hPa West 1.4 km/h 6.4 km/h 92% 0.0 mm 0 W/m2
21:39 3.5 °C 2.3 °C 1005.1 hPa West 9.7 km/h 12.9 km/h 92% 0.0 mm 0 W/m2
21:44 3.4 °C 2.2 °C 1005.1 hPa NW 6.4 km/h 11.3 km/h 92% 0.0 mm 0 W/m2
21:49 3.4 °C 2.2 °C 1005.1 hPa West 1.4 km/h 6.4 km/h 92% 0.0 mm 0 W/m2
21:54 3.4 °C 2.2 °C 1005.1 hPa West 1.4 km/h 4.8 km/h 92% 0.0 mm 0 W/m2
21:59 3.4 °C 2.2 °C 1004.7 hPa WNW 4.7 km/h 6.4 km/h 92% 0.0 mm 0 W/m2
22:04 3.3 °C 2.1 °C 1004.7 hPa West 4.7 km/h 9.7 km/h 92% 0.0 mm 0 W/m2
22:09 3.3 °C 2.1 °C 1004.7 hPa NW 6.4 km/h 6.4 km/h 92% 0.0 mm 0 W/m2
22:14 3.2 °C 2 °C 1004.4 hPa NNW 4.7 km/h 8 km/h 92% 0.0 mm 0 W/m2
22:19 3.2 °C 2 °C 1004.4 hPa NW 1.4 km/h 3.2 km/h 92% 0.0 mm 0 W/m2
22:24 3.2 °C 2 °C 1004.4 hPa NW 3.2 km/h 11.3 km/h 92% 0.0 mm 0 W/m2
22:29 3.2 °C 2 °C 1004.4 hPa NW 1.4 km/h 6.4 km/h 92% 0.0 mm 0 W/m2
22:34 3.2 °C 2 °C 1004.4 hPa Calm   1.6 km/h 92% 0.0 mm 0 W/m2
22:39 3.1 °C 1.9 °C 1004.1 hPa West 1.4 km/h 3.2 km/h 92% 0.0 mm 0 W/m2
22:44 3.1 °C 1.9 °C 1004.1 hPa Calm   3.2 km/h 92% 0.0 mm 0 W/m2
22:49 3 °C 1.8 °C 1003.7 hPa ENE 1.4 km/h 4.8 km/h 92% 0.0 mm 0 W/m2
22:54 2.9 °C 1.7 °C 1003.7 hPa ENE 3.2 km/h 4.8 km/h 92% 0.0 mm 0 W/m2
22:59 2.9 °C 1.7 °C 1003.7 hPa Calm   6.4 km/h 92% 0.0 mm 0 W/m2
23:04 2.8 °C 1.6 °C 1003.4 hPa Calm   4.8 km/h 92% 0.0 mm 0 W/m2
23:09 2.8 °C 1.8 °C 1003.4 hPa East 1.4 km/h 8 km/h 93% 0.0 mm 0 W/m2
23:14 2.8 °C 1.8 °C 1003.4 hPa ENE 3.2 km/h 6.4 km/h 93% 0.0 mm 0 W/m2
23:19 2.7 °C 1.7 °C 1003.4 hPa East 1.4 km/h 4.8 km/h 93% 0.0 mm 0 W/m2
23:24 2.7 °C 1.7 °C 1003.0 hPa NE 3.2 km/h 3.2 km/h 93% 0.0 mm 0 W/m2
23:29 2.6 °C 1.6 °C 1003.0 hPa ENE 3.2 km/h 6.4 km/h 93% 0.0 mm 0 W/m2
23:34 2.5 °C 1.5 °C 1003.0 hPa East 4.7 km/h 4.8 km/h 93% 0.0 mm 0 W/m2
23:39 2.4 °C 1.4 °C 1002.7 hPa Calm   4.8 km/h 93% 0.0 mm 0 W/m2
23:44 2.4 °C 1.4 °C 1002.7 hPa Calm   4.8 km/h 93% 0.0 mm 0 W/m2
23:49 2.3 °C 1.3 °C 1002.7 hPa Calm   4.8 km/h 93% 0.0 mm 0 W/m2
23:54 2.3 °C 1.3 °C 1002.7 hPa ENE 4.7 km/h 4.8 km/h 93% 0.0 mm 0 W/m2
23:59 2.2 °C 1.2 °C 1002.7 hPa ENE 3.2 km/h 3.2 km/h 93% 0.0 mm 0 W/m2
Juneau County Weather
Compliments of Weather Underground - 4 mb